createdAt,value
2023-02-15T00:01:11.911Z,0.46
2023-02-15T00:03:38.751Z,0.50
2023-02-15T00:06:06.146Z,0.50
2023-02-15T00:08:33.149Z,0.43
2023-02-15T00:11:13.115Z,0.39
2023-02-15T00:13:43.251Z,0.42
2023-02-15T00:16:12.490Z,0.41
2023-02-15T00:18:40.506Z,0.40
2023-02-15T00:21:09.638Z,0.35
2023-02-15T00:23:36.825Z,0.33
2023-02-15T00:26:12.182Z,0.26
2023-02-15T00:28:39.728Z,0.25
2023-02-15T00:31:10.636Z,0.26
2023-02-15T00:33:38.499Z,0.29
2023-02-15T00:36:06.935Z,0.29
2023-02-15T00:38:34.541Z,0.28
2023-02-15T00:41:04.077Z,0.23
2023-02-15T00:43:32.015Z,0.19
2023-02-15T00:45:59.428Z,0.20
2023-02-15T00:48:26.410Z,0.18
2023-02-15T00:50:55.664Z,0.16
2023-02-15T00:53:22.675Z,0.17
2023-02-15T00:55:49.155Z,0.14
2023-02-15T00:58:16.424Z,0.10
2023-02-15T01:00:45.449Z,0.06
2023-02-15T01:03:12.650Z,0.00
2023-02-15T01:05:39.547Z,0.03
2023-02-15T01:08:06.095Z,0.04
2023-02-15T01:10:32.972Z,0.02
2023-02-15T01:12:59.451Z,0.02
2023-02-15T01:15:26.040Z,0.03
2023-02-15T01:17:54.058Z,-0.03
2023-02-15T01:20:22.886Z,-0.03
2023-02-15T01:22:50.744Z,-0.04
2023-02-15T01:25:18.502Z,-0.03
2023-02-15T01:27:45.129Z,-0.09
2023-02-15T01:30:12.373Z,-0.07
2023-02-15T01:32:38.915Z,-0.14
2023-02-15T01:35:05.668Z,-0.18
2023-02-15T01:37:33.328Z,-0.19
2023-02-15T01:40:01.068Z,-0.17
2023-02-15T01:42:28.716Z,-0.18
2023-02-15T01:44:55.219Z,-0.12
2023-02-15T01:47:24.683Z,-0.11
2023-02-15T01:50:00.600Z,-0.14
2023-02-15T01:52:27.308Z,-0.18
2023-02-15T01:54:53.975Z,-0.19
2023-02-15T01:57:24.914Z,-0.18
2023-02-15T01:59:57.292Z,-0.18
2023-02-15T02:02:25.495Z,-0.18
2023-02-15T02:04:54.124Z,-0.21
2023-02-15T02:07:22.472Z,-0.22
2023-02-15T02:09:49.910Z,-0.23
2023-02-15T02:12:18.980Z,-0.26
2023-02-15T02:14:46.727Z,-0.32
2023-02-15T02:17:25.206Z,-0.31
2023-02-15T02:20:17.721Z,-0.30
2023-02-15T02:23:05.564Z,-0.35
2023-02-15T02:25:31.969Z,-0.40
2023-02-15T02:28:23.406Z,-0.43
2023-02-15T02:31:12.263Z,-0.47
2023-02-15T02:33:57.994Z,-0.43
2023-02-15T02:36:50.427Z,-0.44
2023-02-15T02:39:40.955Z,-0.45
2023-02-15T02:42:19.158Z,-0.48
2023-02-15T02:44:57.511Z,-0.50
2023-02-15T02:47:31.544Z,-0.51
2023-02-15T02:50:05.076Z,-0.50
2023-02-15T02:52:43.375Z,-0.52
2023-02-15T02:55:32.965Z,-0.55
2023-02-15T02:58:18.701Z,-0.53
2023-02-15T03:00:51.172Z,-0.52
2023-02-15T03:03:24.388Z,-0.51
2023-02-15T03:05:56.044Z,-0.50
2023-02-15T03:08:28.862Z,-0.53
2023-02-15T03:11:00.413Z,-0.55
2023-02-15T03:13:28.603Z,-0.54
2023-02-15T03:16:15.622Z,-0.58
2023-02-15T03:18:58.722Z,-0.60
2023-02-15T03:21:32.953Z,-0.63
2023-02-15T03:24:16.399Z,-0.63
2023-02-15T03:26:46.513Z,-0.63
2023-02-15T03:29:14.728Z,-0.68
2023-02-15T03:31:46.717Z,-0.67
2023-02-15T03:34:16.237Z,-0.67
2023-02-15T03:36:54.290Z,-0.65
2023-02-15T03:39:24.944Z,-0.66
2023-02-15T03:42:12.987Z,-0.70
2023-02-15T03:44:55.989Z,-0.71
2023-02-15T03:47:52.198Z,-0.73
2023-02-15T03:50:42.425Z,-0.72
2023-02-15T03:53:12.984Z,-0.74
2023-02-15T03:55:39.578Z,-0.75
2023-02-15T03:58:24.731Z,-0.76
2023-02-15T04:01:18.820Z,-0.79
2023-02-15T04:04:04.391Z,-0.80
2023-02-15T04:06:30.881Z,-0.78
2023-02-15T04:09:15.907Z,-0.81
2023-02-15T04:11:42.370Z,-0.79
2023-02-15T04:14:27.328Z,-0.81
2023-02-15T04:16:53.894Z,-0.79
2023-02-15T04:19:38.906Z,-0.80
2023-02-15T04:22:23.649Z,-0.81
2023-02-15T04:25:08.452Z,-0.86
2023-02-15T04:27:34.927Z,-0.89
2023-02-15T04:30:01.415Z,-0.91
2023-02-15T04:32:28.514Z,-0.95
2023-02-15T04:34:55.002Z,-0.92
2023-02-15T04:37:21.483Z,-0.92
2023-02-15T04:39:47.955Z,-0.93
2023-02-15T04:42:14.422Z,-0.92
2023-02-15T04:44:40.864Z,-0.89
2023-02-15T04:47:07.368Z,-0.90
2023-02-15T04:49:33.920Z,-0.95
2023-02-15T04:52:00.362Z,-0.94
2023-02-15T04:54:26.874Z,-0.91
2023-02-15T04:56:53.414Z,-0.95
2023-02-15T04:59:19.872Z,-0.91
2023-02-15T05:01:46.377Z,-0.94
2023-02-15T05:04:12.907Z,-0.98
2023-02-15T05:06:39.538Z,-1.01
2023-02-15T05:09:06.064Z,-1.03
2023-02-15T05:11:32.620Z,-1.07
2023-02-15T05:13:59.197Z,-1.09
2023-02-15T05:16:26.576Z,-1.05
2023-02-15T05:18:53.131Z,-1.08
2023-02-15T05:21:19.696Z,-1.08
2023-02-15T05:23:46.298Z,-1.03
2023-02-15T05:26:35.026Z,-1.07
2023-02-15T05:29:01.484Z,-1.06
2023-02-15T05:31:28.540Z,-1.09
2023-02-15T05:33:55.206Z,-1.07
2023-02-15T05:36:21.664Z,-1.08
2023-02-15T05:38:48.095Z,-1.11
2023-02-15T05:41:14.814Z,-1.08
2023-02-15T05:43:41.492Z,-1.14
2023-02-15T05:46:08.694Z,-1.15
2023-02-15T05:48:35.743Z,-1.17
2023-02-15T05:51:12.179Z,-1.16
2023-02-15T05:53:40.249Z,-1.15
2023-02-15T05:56:12.979Z,-1.14
2023-02-15T05:58:41.163Z,-1.13
2023-02-15T06:01:18.647Z,-1.13
2023-02-15T06:03:46.651Z,-1.18
2023-02-15T06:06:13.468Z,-1.14
2023-02-15T06:08:40.026Z,-1.13
2023-02-15T06:11:07.099Z,-1.09
2023-02-15T06:13:38.001Z,-1.09
2023-02-15T06:16:05.986Z,-1.12
2023-02-15T06:18:32.617Z,-1.15
2023-02-15T06:20:59.086Z,-1.21
2023-02-15T06:23:25.600Z,-1.22
2023-02-15T06:25:52.203Z,-1.22
2023-02-15T06:28:18.758Z,-1.18
2023-02-15T06:30:45.237Z,-1.20
2023-02-15T06:33:11.828Z,-1.16
2023-02-15T06:35:38.274Z,-1.14
2023-02-15T06:38:04.767Z,-1.11
2023-02-15T06:40:31.437Z,-1.10
2023-02-15T06:42:57.896Z,-1.16
2023-02-15T06:45:24.451Z,-1.14
2023-02-15T06:47:50.907Z,-1.13
2023-02-15T06:50:17.574Z,-1.13
2023-02-15T06:52:44.073Z,-1.15
2023-02-15T06:55:10.597Z,-1.12
2023-02-15T06:57:37.436Z,-1.16
2023-02-15T07:00:05.900Z,-1.15
2023-02-15T07:02:32.701Z,-1.19
2023-02-15T07:04:59.281Z,-1.22
2023-02-15T07:07:26.077Z,-1.20
2023-02-15T07:09:52.530Z,-1.15
2023-02-15T07:12:37.611Z,-1.11
2023-02-15T07:15:07.425Z,-1.08
2023-02-15T07:17:36.292Z,-1.01
2023-02-15T07:20:08.817Z,-0.95
2023-02-15T07:22:37.239Z,-0.91
2023-02-15T07:25:05.087Z,-0.86
2023-02-15T07:27:32.940Z,-0.83
2023-02-15T07:30:00.491Z,-0.76
2023-02-15T07:32:33.879Z,-0.70
2023-02-15T07:35:00.558Z,-0.61
2023-02-15T07:37:28.649Z,-0.54
2023-02-15T07:39:55.167Z,-0.50
2023-02-15T07:42:23.011Z,-0.49
2023-02-15T07:44:49.643Z,-0.47
2023-02-15T07:47:16.272Z,-0.42
2023-02-15T07:49:42.789Z,-0.34
2023-02-15T07:52:09.371Z,-0.25
2023-02-15T07:54:35.884Z,-0.22
2023-02-15T07:57:03.001Z,-0.13
2023-02-15T07:59:29.717Z,-0.04
2023-02-15T08:01:57.451Z,0.03
2023-02-15T08:04:25.089Z,0.08
2023-02-15T08:06:55.433Z,0.11
2023-02-15T08:09:22.783Z,0.15
2023-02-15T08:11:49.630Z,0.17
2023-02-15T08:14:21.614Z,0.20
2023-02-15T08:16:49.566Z,0.28
2023-02-15T08:19:22.865Z,0.35
2023-02-15T08:21:51.694Z,0.42
2023-02-15T08:24:20.455Z,0.57
2023-02-15T08:26:48.625Z,0.66
2023-02-15T08:29:17.168Z,0.83
2023-02-15T08:31:44.782Z,0.91
2023-02-15T08:34:14.689Z,1.05
2023-02-15T08:36:41.175Z,1.20
2023-02-15T08:39:08.283Z,1.32
2023-02-15T08:41:36.995Z,1.46
2023-02-15T08:44:06.662Z,1.58
2023-02-15T08:46:38.955Z,1.70
2023-02-15T08:49:06.056Z,1.87
2023-02-15T08:51:35.144Z,2.01
2023-02-15T08:54:05.659Z,2.17
2023-02-15T08:56:38.331Z,2.29
2023-02-15T08:59:05.993Z,2.43
2023-02-15T09:01:34.389Z,2.53
2023-02-15T09:04:05.201Z,2.67
2023-02-15T09:06:31.921Z,2.80
2023-02-15T09:08:58.651Z,2.96
2023-02-15T09:11:30.114Z,3.03
2023-02-15T09:14:10.473Z,3.12
2023-02-15T09:16:39.007Z,3.20
2023-02-15T09:19:06.586Z,3.32
2023-02-15T09:21:35.048Z,3.43
2023-02-15T09:24:05.614Z,3.55
2023-02-15T09:26:35.199Z,3.66
2023-02-15T09:29:04.338Z,3.84
2023-02-15T09:31:34.735Z,3.98
2023-02-15T09:34:04.976Z,4.05
2023-02-15T09:36:39.934Z,4.20
2023-02-15T09:39:15.403Z,4.28
2023-02-15T09:41:57.015Z,4.40
2023-02-15T09:44:32.442Z,4.52
2023-02-15T09:47:11.258Z,4.63
2023-02-15T09:50:05.296Z,4.77
2023-02-15T09:52:41.162Z,4.92
2023-02-15T09:55:52.286Z,5.05
2023-02-15T09:59:00.074Z,5.22
2023-02-15T10:01:45.064Z,5.32
2023-02-15T10:04:44.116Z,5.40
2023-02-15T10:07:35.657Z,5.51
2023-02-15T10:10:24.302Z,5.62
2023-02-15T10:13:05.751Z,5.78
2023-02-15T10:15:53.113Z,5.90
2023-02-15T10:18:35.265Z,5.97
2023-02-15T10:21:03.731Z,6.08
2023-02-15T10:23:46.754Z,6.22
2023-02-15T10:26:14.917Z,6.38
2023-02-15T10:28:51.492Z,6.54
2023-02-15T10:31:44.531Z,6.62
2023-02-15T10:34:14.145Z,6.74
2023-02-15T10:36:58.990Z,6.89
2023-02-15T10:39:53.035Z,6.99
2023-02-15T10:42:31.503Z,7.20
2023-02-15T10:45:25.834Z,7.36
2023-02-15T10:48:17.920Z,7.48
2023-02-15T10:50:52.635Z,7.57
2023-02-15T10:53:47.138Z,7.73
2023-02-15T10:56:26.025Z,7.86
2023-02-15T10:59:04.799Z,7.97
2023-02-15T11:01:54.837Z,8.18
2023-02-15T11:04:30.507Z,8.24
2023-02-15T11:07:24.987Z,8.39
2023-02-15T11:10:02.767Z,8.54
2023-02-15T11:12:32.458Z,8.64
2023-02-15T11:15:36.500Z,8.76
2023-02-15T11:18:12.859Z,8.87
2023-02-15T11:20:57.520Z,8.94
2023-02-15T11:23:25.748Z,9.01
2023-02-15T11:26:04.417Z,8.97
2023-02-15T11:28:35.538Z,9.06
2023-02-15T11:31:17.668Z,9.03
2023-02-15T11:33:48.603Z,9.08
2023-02-15T11:36:21.409Z,9.19
2023-02-15T11:38:53.187Z,9.30
2023-02-15T11:41:28.266Z,9.47
2023-02-15T11:44:16.679Z,9.66
2023-02-15T11:46:43.401Z,9.82
2023-02-15T11:49:29.651Z,10.05
2023-02-15T11:51:57.821Z,10.14
2023-02-15T11:54:30.644Z,10.13
2023-02-15T11:57:34.840Z,10.32
2023-02-15T12:00:11.427Z,10.51
2023-02-15T12:02:41.724Z,10.58
2023-02-15T12:05:15.777Z,10.67
2023-02-15T12:07:50.996Z,10.69
2023-02-15T12:10:25.737Z,10.57
2023-02-15T12:13:20.244Z,10.68
2023-02-15T12:15:52.230Z,10.83
2023-02-15T12:18:35.970Z,10.86
2023-02-15T12:21:15.487Z,10.86
2023-02-15T12:23:44.922Z,10.89
2023-02-15T12:26:11.924Z,10.94
2023-02-15T12:28:53.084Z,10.93
2023-02-15T12:31:25.181Z,11.04
2023-02-15T12:33:57.895Z,11.34
2023-02-15T12:36:34.078Z,11.45
2023-02-15T12:39:14.135Z,11.60
2023-02-15T12:41:55.876Z,11.76
2023-02-15T12:44:32.118Z,11.86
2023-02-15T12:47:02.971Z,11.93
2023-02-15T12:49:34.518Z,11.92
2023-02-15T12:52:23.249Z,11.98
2023-02-15T12:54:50.123Z,11.90
2023-02-15T12:57:26.830Z,11.88
2023-02-15T13:00:37.925Z,11.80
2023-02-15T13:03:04.856Z,11.67
2023-02-15T13:05:45.203Z,11.58
2023-02-15T13:08:21.963Z,11.38
2023-02-15T13:10:56.174Z,11.31
2023-02-15T13:13:26.766Z,11.39
2023-02-15T13:15:56.509Z,11.42
2023-02-15T13:18:45.256Z,11.58
2023-02-15T13:21:17.495Z,11.77
2023-02-15T13:23:49.308Z,11.87
2023-02-15T13:26:20.344Z,11.89
2023-02-15T13:28:50.729Z,11.81
2023-02-15T13:31:24.189Z,11.80
2023-02-15T13:33:56.157Z,11.79
2023-02-15T13:36:42.369Z,11.77
2023-02-15T13:39:26.003Z,11.67
2023-02-15T13:42:14.217Z,11.69
2023-02-15T13:45:04.146Z,11.70
2023-02-15T13:47:47.532Z,11.69
2023-02-15T13:50:19.972Z,11.77
2023-02-15T13:53:09.227Z,11.76
2023-02-15T13:55:53.259Z,11.80
2023-02-15T13:58:47.796Z,11.72
2023-02-15T14:01:33.001Z,11.77
2023-02-15T14:04:20.835Z,11.83
2023-02-15T14:07:17.208Z,11.87
2023-02-15T14:10:11.423Z,11.81
2023-02-15T14:13:02.682Z,11.70
2023-02-15T14:15:50.106Z,11.66
2023-02-15T14:18:42.999Z,11.61
2023-02-15T14:21:18.974Z,11.60
2023-02-15T14:23:54.843Z,11.54
2023-02-15T14:26:54.945Z,11.47
2023-02-15T14:29:33.585Z,11.40
2023-02-15T14:32:09.498Z,11.40
2023-02-15T14:34:58.070Z,11.36
2023-02-15T14:37:48.736Z,11.31
2023-02-15T14:41:02.164Z,11.37
2023-02-15T14:44:00.704Z,11.31
2023-02-15T14:46:33.181Z,11.25
2023-02-15T14:49:11.353Z,11.21
2023-02-15T14:51:44.004Z,11.23
2023-02-15T14:54:33.695Z,11.29
2023-02-15T14:57:02.999Z,11.22
2023-02-15T14:59:53.542Z,11.16
2023-02-15T15:02:25.272Z,11.09
2023-02-15T15:05:03.913Z,11.06
2023-02-15T15:07:47.396Z,11.05
2023-02-15T15:10:16.900Z,11.05
2023-02-15T15:12:47.382Z,11.01
2023-02-15T15:15:45.572Z,11.01
2023-02-15T15:18:45.304Z,11.01
2023-02-15T15:21:11.851Z,10.94
2023-02-15T15:23:43.798Z,10.98
2023-02-15T15:26:26.832Z,10.96
2023-02-15T15:28:53.216Z,10.96
2023-02-15T15:31:36.481Z,10.95
2023-02-15T15:34:27.997Z,10.92
2023-02-15T15:37:28.685Z,10.86
2023-02-15T15:40:23.154Z,10.88
2023-02-15T15:43:21.869Z,10.80
2023-02-15T15:45:51.218Z,10.76
2023-02-15T15:48:35.633Z,10.72
2023-02-15T15:51:07.636Z,10.67
2023-02-15T15:53:42.218Z,10.61
2023-02-15T15:56:16.408Z,10.58
2023-02-15T15:58:49.188Z,10.54
2023-02-15T16:01:15.875Z,10.51
2023-02-15T16:03:53.410Z,10.44
2023-02-15T16:06:34.901Z,10.39
2023-02-15T16:09:19.938Z,10.38
2023-02-15T16:11:52.937Z,10.35
2023-02-15T16:14:39.481Z,10.37
2023-02-15T16:17:14.415Z,10.34
2023-02-15T16:19:42.524Z,10.23
2023-02-15T16:22:16.346Z,10.21
2023-02-15T16:25:05.055Z,10.15
2023-02-15T16:27:36.410Z,10.07
2023-02-15T16:30:29.975Z,9.94
2023-02-15T16:33:04.097Z,9.87
2023-02-15T16:35:30.930Z,9.77
2023-02-15T16:37:57.478Z,9.72
2023-02-15T16:40:24.018Z,9.67
2023-02-15T16:42:52.934Z,9.59
2023-02-15T16:45:22.730Z,9.45
2023-02-15T16:47:52.855Z,9.27
2023-02-15T16:50:22.242Z,9.20
2023-02-15T16:52:49.245Z,9.17
2023-02-15T16:55:24.710Z,9.12
2023-02-15T16:57:54.845Z,9.03
2023-02-15T17:00:26.248Z,8.98
2023-02-15T17:03:01.084Z,8.89
2023-02-15T17:05:41.667Z,8.82
2023-02-15T17:08:33.035Z,8.79
2023-02-15T17:10:59.523Z,8.74
2023-02-15T17:13:29.804Z,8.65
2023-02-15T17:15:59.501Z,8.53
2023-02-15T17:18:41.034Z,8.30
2023-02-15T17:21:19.714Z,8.25
2023-02-15T17:23:51.995Z,8.19
2023-02-15T17:26:24.886Z,8.18
2023-02-15T17:28:57.641Z,8.14
2023-02-15T17:31:29.522Z,8.06
2023-02-15T17:33:57.632Z,7.93
2023-02-15T17:36:29.532Z,7.89
2023-02-15T17:38:58.772Z,7.88
2023-02-15T17:41:29.911Z,7.81
2023-02-15T17:43:56.767Z,7.81
2023-02-15T17:46:24.789Z,7.81
2023-02-15T17:48:56.192Z,7.83
2023-02-15T17:51:23.530Z,7.84
2023-02-15T17:54:08.636Z,7.83
2023-02-15T17:56:36.970Z,7.84
2023-02-15T17:59:07.607Z,7.76
2023-02-15T18:02:01.518Z,7.72
2023-02-15T18:04:46.319Z,7.72
2023-02-15T18:07:31.619Z,7.68
2023-02-15T18:10:16.467Z,7.69
2023-02-15T18:12:42.978Z,7.67
2023-02-15T18:15:12.276Z,7.69
2023-02-15T18:17:43.988Z,7.65
2023-02-15T18:20:21.190Z,7.65
2023-02-15T18:22:47.876Z,7.60
2023-02-15T18:25:16.904Z,7.52
2023-02-15T18:27:43.642Z,7.44
2023-02-15T18:30:15.884Z,7.30
2023-02-15T18:32:43.452Z,7.19
2023-02-15T18:35:16.310Z,7.16
2023-02-15T18:37:43.477Z,7.07
2023-02-15T18:40:16.446Z,7.00
2023-02-15T18:42:47.181Z,6.92
2023-02-15T18:45:15.648Z,6.85
2023-02-15T18:47:42.131Z,6.75
2023-02-15T18:50:09.089Z,6.68
2023-02-15T18:52:37.895Z,6.60
2023-02-15T18:55:16.210Z,6.48
2023-02-15T18:57:44.880Z,6.42
2023-02-15T19:00:20.107Z,6.47
2023-02-15T19:02:47.012Z,6.48
2023-02-15T19:05:14.117Z,6.52
2023-02-15T19:07:43.083Z,6.39
2023-02-15T19:10:16.373Z,6.36
2023-02-15T19:12:43.210Z,6.32
2023-02-15T19:15:22.336Z,6.22
2023-02-15T19:17:49.133Z,6.17
2023-02-15T19:20:21.021Z,6.07
2023-02-15T19:22:49.553Z,6.00
2023-02-15T19:25:22.249Z,5.96
2023-02-15T19:27:49.206Z,5.97
2023-02-15T19:30:18.976Z,5.92
2023-02-15T19:32:46.775Z,5.88
2023-02-15T19:35:15.288Z,5.87
2023-02-15T19:37:45.859Z,5.87
2023-02-15T19:40:28.382Z,5.91
2023-02-15T19:42:55.207Z,5.94
2023-02-15T19:45:25.183Z,5.99
2023-02-15T19:47:53.942Z,5.96
2023-02-15T19:50:26.336Z,5.98
2023-02-15T19:52:53.012Z,5.93
2023-02-15T19:55:34.188Z,5.85
2023-02-15T19:58:02.258Z,5.84
2023-02-15T20:00:31.452Z,5.72
2023-02-15T20:02:59.211Z,5.65
2023-02-15T20:05:31.023Z,5.61
2023-02-15T20:07:58.508Z,5.64
2023-02-15T20:10:28.901Z,5.65
2023-02-15T20:12:55.568Z,5.59
2023-02-15T20:15:25.294Z,5.58
2023-02-15T20:17:52.517Z,5.54
2023-02-15T20:20:20.527Z,5.51
2023-02-15T20:22:50.184Z,5.50
2023-02-15T20:25:21.667Z,5.49
2023-02-15T20:27:48.466Z,5.44
2023-02-15T20:30:16.881Z,5.38
2023-02-15T20:32:43.491Z,5.28
2023-02-15T20:35:17.862Z,5.33
2023-02-15T20:37:50.965Z,5.27
2023-02-15T20:40:21.892Z,5.29
2023-02-15T20:42:48.710Z,5.41
2023-02-15T20:45:19.745Z,5.44
2023-02-15T20:47:50.330Z,5.48
2023-02-15T20:50:19.425Z,5.47
2023-02-15T20:52:47.412Z,5.48
2023-02-15T20:55:32.408Z,5.57
2023-02-15T20:57:59.357Z,5.58
2023-02-15T21:00:29.034Z,5.57
2023-02-15T21:02:59.283Z,5.56
2023-02-15T21:05:30.157Z,5.53
2023-02-15T21:07:57.529Z,5.55
2023-02-15T21:10:27.265Z,5.56
2023-02-15T21:12:54.441Z,5.62
2023-02-15T21:15:39.768Z,5.64
2023-02-15T21:18:12.465Z,5.63
2023-02-15T21:20:45.413Z,5.52
2023-02-15T21:23:14.795Z,5.53
2023-02-15T21:25:44.467Z,5.49
2023-02-15T21:28:17.738Z,5.51
2023-02-15T21:30:44.684Z,5.48
2023-02-15T21:33:11.181Z,5.47
2023-02-15T21:35:37.783Z,5.46
2023-02-15T21:38:04.606Z,5.47
2023-02-15T21:40:32.287Z,5.47
2023-02-15T21:43:17.797Z,5.47
2023-02-15T21:46:03.271Z,5.45
2023-02-15T21:48:29.731Z,5.52
2023-02-15T21:51:14.887Z,5.57
2023-02-15T21:53:45.945Z,5.54
2023-02-15T21:56:19.012Z,5.57
2023-02-15T21:58:46.290Z,5.57
2023-02-15T22:01:28.711Z,5.57
2023-02-15T22:03:57.755Z,5.56
2023-02-15T22:06:24.598Z,5.57
2023-02-15T22:08:51.134Z,5.53
2023-02-15T22:11:20.296Z,5.56
2023-02-15T22:13:48.488Z,5.57
2023-02-15T22:16:18.310Z,5.59
2023-02-15T22:18:45.640Z,5.61
2023-02-15T22:21:12.290Z,5.64
2023-02-15T22:23:39.188Z,5.63
2023-02-15T22:26:08.399Z,5.68
2023-02-15T22:28:38.679Z,5.62
2023-02-15T22:31:11.965Z,5.62
2023-02-15T22:33:38.976Z,5.56
2023-02-15T22:36:05.803Z,5.60
2023-02-15T22:38:32.421Z,5.57
2023-02-15T22:41:04.563Z,5.56
2023-02-15T22:43:38.643Z,5.55
2023-02-15T22:46:11.313Z,5.52
2023-02-15T22:48:38.108Z,5.55
2023-02-15T22:51:05.169Z,5.54
2023-02-15T22:53:31.842Z,5.54
2023-02-15T22:56:04.799Z,5.51
2023-02-15T22:58:31.323Z,5.51
2023-02-15T23:00:59.947Z,5.48
2023-02-15T23:03:28.834Z,5.49
2023-02-15T23:05:55.478Z,5.43
2023-02-15T23:08:22.088Z,5.43
2023-02-15T23:10:54.016Z,5.42
2023-02-15T23:13:27.292Z,5.42
2023-02-15T23:15:59.520Z,5.39
2023-02-15T23:18:25.908Z,5.41
2023-02-15T23:20:54.124Z,5.40
2023-02-15T23:23:35.856Z,5.40
2023-02-15T23:26:04.488Z,5.37
2023-02-15T23:28:37.334Z,5.40
2023-02-15T23:31:16.340Z,5.39
2023-02-15T23:33:43.079Z,5.37
2023-02-15T23:36:28.343Z,5.36
2023-02-15T23:39:20.815Z,5.35
2023-02-15T23:41:47.370Z,5.32
2023-02-15T23:44:14.426Z,5.33
2023-02-15T23:46:44.818Z,5.35
2023-02-15T23:49:17.577Z,5.35
2023-02-15T23:51:50.181Z,5.31
2023-02-15T23:54:18.324Z,5.34
2023-02-15T23:56:47.182Z,5.36
2023-02-15T23:59:32.426Z,5.39
